createdAt,value
2018-07-31T00:00:01.854Z,8.17
2018-07-31T00:02:29.805Z,7.30
2018-07-31T00:04:57.780Z,9.07
2018-07-31T00:07:25.656Z,8.07
2018-07-31T00:09:54.077Z,7.97
2018-07-31T00:12:21.901Z,9.60
2018-07-31T00:14:49.771Z,7.80
2018-07-31T00:17:17.757Z,7.97
2018-07-31T00:19:45.613Z,7.60
2018-07-31T00:22:13.429Z,7.60
2018-07-31T00:24:41.327Z,8.17
2018-07-31T00:27:09.169Z,10.90
2018-07-31T00:29:37.369Z,7.17
2018-07-31T00:32:05.422Z,8.13
2018-07-31T00:34:33.622Z,8.63
2018-07-31T00:37:01.385Z,8.23
2018-07-31T00:39:29.221Z,8.00
2018-07-31T00:41:57.096Z,7.43
2018-07-31T00:44:24.966Z,8.20
2018-07-31T00:46:52.779Z,8.17
2018-07-31T00:49:20.566Z,9.03
2018-07-31T00:51:48.339Z,8.30
2018-07-31T00:54:16.204Z,7.77
2018-07-31T00:56:44.219Z,7.47
2018-07-31T00:59:12.054Z,8.90
2018-07-31T01:01:39.903Z,7.60
2018-07-31T01:04:07.824Z,8.17
2018-07-31T01:06:41.685Z,8.33
2018-07-31T01:09:10.680Z,9.30
2018-07-31T01:11:39.033Z,7.83
2018-07-31T01:14:07.818Z,8.50
2018-07-31T01:16:36.461Z,8.53
2018-07-31T01:19:04.624Z,7.83
2018-07-31T01:21:32.586Z,8.30
2018-07-31T01:24:00.514Z,8.17
2018-07-31T01:26:28.386Z,8.13
2018-07-31T01:28:56.284Z,8.13
2018-07-31T01:31:23.883Z,8.57
2018-07-31T01:33:51.727Z,9.17
2018-07-31T01:36:19.559Z,10.53
2018-07-31T01:38:47.491Z,8.50
2018-07-31T01:41:15.270Z,8.07
2018-07-31T01:43:43.042Z,8.47
2018-07-31T01:46:10.915Z,8.70
2018-07-31T01:48:38.770Z,8.17
2018-07-31T01:51:06.712Z,8.57
2018-07-31T01:53:34.518Z,8.37
2018-07-31T01:56:02.401Z,7.93
2018-07-31T01:58:30.305Z,8.23
2018-07-31T02:00:59.118Z,8.57
2018-07-31T02:03:27.319Z,8.50
2018-07-31T02:05:55.165Z,8.50
2018-07-31T02:08:23.100Z,8.67
2018-07-31T02:10:50.922Z,8.90
2018-07-31T02:13:19.163Z,8.90
2018-07-31T02:15:47.160Z,7.80
2018-07-31T02:18:14.999Z,7.90
2018-07-31T02:20:42.986Z,8.50
2018-07-31T02:23:11.866Z,7.83
2018-07-31T02:25:40.263Z,10.40
2018-07-31T02:28:08.598Z,9.00
2018-07-31T02:30:36.355Z,8.60
2018-07-31T02:33:04.294Z,8.33
2018-07-31T02:35:32.376Z,9.27
2018-07-31T02:38:00.345Z,9.27
2018-07-31T02:40:28.405Z,9.17
2018-07-31T02:42:56.322Z,9.50
2018-07-31T02:45:24.184Z,8.40
2018-07-31T02:47:52.070Z,9.47
2018-07-31T02:50:19.966Z,9.17
2018-07-31T02:52:47.746Z,9.03
2018-07-31T02:55:15.558Z,8.03
2018-07-31T02:57:43.362Z,8.70
2018-07-31T03:00:11.490Z,9.10
2018-07-31T03:02:39.384Z,8.90
2018-07-31T03:05:09.090Z,9.00
2018-07-31T03:07:37.028Z,8.67
2018-07-31T03:10:06.374Z,9.10
2018-07-31T03:12:34.270Z,9.33
2018-07-31T03:15:02.283Z,8.63
2018-07-31T03:17:30.197Z,8.60
2018-07-31T03:19:58.058Z,10.57
2018-07-31T03:22:26.066Z,8.80
2018-07-31T03:24:53.929Z,9.47
2018-07-31T03:27:21.747Z,8.63
2018-07-31T03:29:49.690Z,8.37
2018-07-31T03:32:17.540Z,8.83
2018-07-31T03:34:45.210Z,9.30
2018-07-31T03:37:13.103Z,10.20
2018-07-31T03:39:40.859Z,10.83
2018-07-31T03:42:08.692Z,12.03
2018-07-31T03:44:36.486Z,8.60
2018-07-31T03:47:04.301Z,8.63
2018-07-31T03:49:32.145Z,9.03
2018-07-31T03:51:59.960Z,8.93
2018-07-31T03:54:27.711Z,9.40
2018-07-31T03:56:55.709Z,8.93
2018-07-31T03:59:25.612Z,9.90
2018-07-31T04:01:53.548Z,9.60
2018-07-31T04:04:21.324Z,9.17
2018-07-31T04:06:49.145Z,9.73
2018-07-31T04:09:16.944Z,9.13
2018-07-31T04:11:44.652Z,8.00
2018-07-31T04:14:12.439Z,9.00
2018-07-31T04:16:40.282Z,9.93
2018-07-31T04:19:08.180Z,9.47
2018-07-31T04:21:36.157Z,10.13
2018-07-31T04:24:04.095Z,10.53
2018-07-31T04:26:32.074Z,10.10
2018-07-31T04:28:59.839Z,11.63
2018-07-31T04:31:27.651Z,10.07
2018-07-31T04:33:55.434Z,9.63
2018-07-31T04:36:23.295Z,10.07
2018-07-31T04:38:51.050Z,10.00
2018-07-31T04:41:18.880Z,10.97
2018-07-31T04:43:46.752Z,9.70
2018-07-31T04:46:14.575Z,9.90
2018-07-31T04:48:42.593Z,9.60
2018-07-31T04:51:10.407Z,10.27
2018-07-31T04:53:38.267Z,10.37
2018-07-31T04:56:06.037Z,13.70
2018-07-31T04:58:33.752Z,9.20
2018-07-31T05:01:01.679Z,10.80
2018-07-31T05:03:30.073Z,9.63
2018-07-31T05:05:57.967Z,9.83
2018-07-31T05:08:25.934Z,9.27
2018-07-31T05:10:53.869Z,10.47
2018-07-31T05:13:21.845Z,9.80
2018-07-31T05:15:49.738Z,9.93
2018-07-31T05:18:17.638Z,9.27
2018-07-31T05:20:45.541Z,9.97
2018-07-31T05:23:13.402Z,11.27
2018-07-31T05:25:41.232Z,10.70
2018-07-31T05:28:09.159Z,9.37
2018-07-31T05:33:10.056Z,9.67
2018-07-31T05:35:37.607Z,9.77
2018-07-31T05:38:05.601Z,10.10
2018-07-31T05:40:33.523Z,10.03
2018-07-31T05:43:01.396Z,10.27
2018-07-31T05:45:29.268Z,10.00
2018-07-31T05:47:57.088Z,8.80
2018-07-31T05:50:24.939Z,10.17
2018-07-31T05:52:52.897Z,10.57
2018-07-31T05:55:20.707Z,10.70
2018-07-31T05:57:48.618Z,9.20
2018-07-31T06:00:16.537Z,9.63
2018-07-31T06:02:44.346Z,11.03
2018-07-31T06:05:12.024Z,9.20
2018-07-31T06:07:39.919Z,9.90
2018-07-31T06:10:08.231Z,8.77
2018-07-31T06:12:37.082Z,9.97
2018-07-31T06:15:06.148Z,9.13
2018-07-31T06:17:33.992Z,9.53
2018-07-31T06:20:02.021Z,9.00
2018-07-31T06:22:29.941Z,11.10
2018-07-31T06:24:57.781Z,9.20
2018-07-31T06:27:25.543Z,9.23
2018-07-31T06:29:53.345Z,9.33
2018-07-31T06:32:21.148Z,9.63
2018-07-31T06:34:48.990Z,9.17
2018-07-31T06:37:16.885Z,8.77
2018-07-31T06:39:44.757Z,8.07
2018-07-31T06:42:12.672Z,8.87
2018-07-31T06:44:41.240Z,8.87
2018-07-31T06:47:09.218Z,8.50
2018-07-31T06:49:37.086Z,8.30
2018-07-31T06:52:05.908Z,8.60
2018-07-31T06:54:33.780Z,8.73
2018-07-31T06:57:01.600Z,8.18
2018-07-31T06:59:29.627Z,8.85
2018-07-31T07:01:57.463Z,8.63
2018-07-31T07:04:25.504Z,8.30
2018-07-31T07:06:53.448Z,7.97
2018-07-31T07:09:21.368Z,8.53
2018-07-31T07:11:49.269Z,8.60
2018-07-31T07:14:17.146Z,8.43
2018-07-31T07:16:44.923Z,8.43
2018-07-31T07:19:12.799Z,8.75
2018-07-31T07:21:40.856Z,9.05
2018-07-31T07:24:08.759Z,7.85
2018-07-31T07:26:36.531Z,8.38
2018-07-31T07:29:04.345Z,8.83
2018-07-31T07:31:32.259Z,8.75
2018-07-31T07:34:00.166Z,8.58
2018-07-31T07:36:28.078Z,8.85
2018-07-31T07:38:56.014Z,8.65
2018-07-31T07:41:23.941Z,8.38
2018-07-31T07:43:51.846Z,10.55
2018-07-31T07:46:19.716Z,9.23
2018-07-31T07:48:47.479Z,8.63
2018-07-31T07:51:15.356Z,8.10
2018-07-31T07:53:43.221Z,8.40
2018-07-31T07:56:11.066Z,9.83
2018-07-31T07:58:38.933Z,8.65
2018-07-31T08:01:07.029Z,11.65
2018-07-31T08:03:34.994Z,8.98
2018-07-31T08:06:02.933Z,8.95
2018-07-31T08:08:31.327Z,9.23
2018-07-31T08:10:59.354Z,9.40
2018-07-31T08:13:27.147Z,9.68
2018-07-31T08:15:55.116Z,8.93
2018-07-31T08:18:23.024Z,8.93
2018-07-31T08:20:54.075Z,10.15
2018-07-31T08:23:21.882Z,8.73
2018-07-31T08:25:49.733Z,8.78
2018-07-31T08:28:17.627Z,10.08
2018-07-31T08:30:45.501Z,9.40
2018-07-31T08:33:16.671Z,8.90
2018-07-31T08:35:44.581Z,9.40
2018-07-31T08:38:12.448Z,8.48
2018-07-31T08:40:40.376Z,8.65
2018-07-31T08:43:08.299Z,8.50
2018-07-31T08:45:36.054Z,9.15
2018-07-31T08:48:03.929Z,8.60
2018-07-31T08:50:33.101Z,8.80
2018-07-31T08:53:01.706Z,8.50
2018-07-31T08:55:29.749Z,9.00
2018-07-31T08:57:57.628Z,8.55
2018-07-31T09:00:25.453Z,8.48
2018-07-31T09:02:53.446Z,8.40
2018-07-31T09:05:21.416Z,8.98
2018-07-31T09:07:49.403Z,8.60
2018-07-31T09:10:17.333Z,8.50
2018-07-31T09:12:45.325Z,8.65
2018-07-31T09:15:13.257Z,8.68
2018-07-31T09:17:41.288Z,8.95
2018-07-31T09:20:09.356Z,8.58
2018-07-31T09:22:37.563Z,8.88
2018-07-31T09:25:10.792Z,7.95
2018-07-31T09:27:38.779Z,7.33
2018-07-31T09:30:06.938Z,7.62
2018-07-31T09:32:40.459Z,7.80
2018-07-31T09:35:08.440Z,8.03
2018-07-31T09:37:36.462Z,7.20
2018-07-31T09:40:04.669Z,8.65
2018-07-31T09:42:33.637Z,8.85
2018-07-31T09:45:02.079Z,7.40
2018-07-31T09:47:30.221Z,8.70
2018-07-31T09:49:58.189Z,7.92
2018-07-31T09:52:25.972Z,7.70
2018-07-31T09:54:54.215Z,8.58
2018-07-31T09:57:22.037Z,7.62
2018-07-31T09:59:53.950Z,7.37
2018-07-31T10:02:21.625Z,7.12
2018-07-31T10:04:49.454Z,6.62
2018-07-31T10:07:17.387Z,7.25
2018-07-31T10:09:45.265Z,7.28
2018-07-31T10:12:13.361Z,7.20
2018-07-31T10:14:41.115Z,7.62
2018-07-31T10:17:08.960Z,6.55
2018-07-31T10:19:36.858Z,7.20
2018-07-31T10:22:10.660Z,6.30
2018-07-31T10:24:38.653Z,6.58
2018-07-31T10:27:06.629Z,6.42
2018-07-31T10:29:34.544Z,6.17
2018-07-31T10:32:02.462Z,6.00
2018-07-31T10:34:30.351Z,6.83
2018-07-31T10:36:58.171Z,5.97
2018-07-31T10:39:26.035Z,6.85
2018-07-31T10:41:53.793Z,6.20
2018-07-31T10:44:25.256Z,6.25
2018-07-31T10:46:53.234Z,6.45
2018-07-31T10:49:21.196Z,6.25
2018-07-31T10:51:49.168Z,6.37
2018-07-31T10:54:24.612Z,7.42
2018-07-31T10:56:52.651Z,6.22
2018-07-31T10:59:20.588Z,6.30
2018-07-31T11:02:01.450Z,6.45
2018-07-31T11:04:31.228Z,6.80
2018-07-31T11:06:59.177Z,6.97
2018-07-31T11:09:33.379Z,6.72
2018-07-31T11:12:01.974Z,6.60
2018-07-31T11:14:30.238Z,6.17
2018-07-31T11:16:58.392Z,6.37
2018-07-31T11:19:26.536Z,6.50
2018-07-31T11:21:54.443Z,6.55
2018-07-31T11:24:22.454Z,6.12
2018-07-31T11:26:50.435Z,10.13
2018-07-31T11:29:18.298Z,6.37
2018-07-31T11:31:46.393Z,9.53
2018-07-31T11:34:16.239Z,7.62
2018-07-31T11:36:44.449Z,7.12
2018-07-31T11:39:12.502Z,6.40
2018-07-31T11:41:40.672Z,6.47
2018-07-31T11:44:08.880Z,6.42
2018-07-31T11:46:37.520Z,6.95
2018-07-31T11:49:06.039Z,7.00
2018-07-31T11:51:34.714Z,5.80
2018-07-31T11:54:03.051Z,7.25
2018-07-31T11:56:33.327Z,6.00
2018-07-31T11:59:03.268Z,6.58
2018-07-31T12:01:31.990Z,7.40
2018-07-31T12:04:00.739Z,6.55
2018-07-31T12:06:28.908Z,6.30
2018-07-31T12:08:57.888Z,6.33
2018-07-31T12:11:26.135Z,6.00
2018-07-31T12:13:54.581Z,6.10
2018-07-31T12:16:22.573Z,6.05
2018-07-31T12:18:52.667Z,5.65
2018-07-31T12:21:20.982Z,6.03
2018-07-31T12:23:49.117Z,5.75
2018-07-31T12:26:17.097Z,5.85
2018-07-31T12:28:45.070Z,6.50
2018-07-31T12:31:16.455Z,6.05
2018-07-31T12:33:44.737Z,5.95
2018-07-31T12:36:13.382Z,5.75
2018-07-31T12:38:44.798Z,6.30
2018-07-31T12:41:13.824Z,6.30
2018-07-31T12:43:42.050Z,6.03
2018-07-31T12:46:12.223Z,6.35
2018-07-31T12:48:40.302Z,6.10
2018-07-31T12:51:09.090Z,6.17
2018-07-31T12:53:37.432Z,6.30
2018-07-31T12:56:06.882Z,5.90
2018-07-31T12:58:35.351Z,6.47
2018-07-31T13:01:04.046Z,6.92
2018-07-31T13:03:32.940Z,6.08
2018-07-31T13:06:01.603Z,6.33
2018-07-31T13:08:29.670Z,5.95
2018-07-31T13:10:57.599Z,6.28
2018-07-31T13:13:25.551Z,5.95
2018-07-31T13:15:53.476Z,6.17
2018-07-31T13:18:21.411Z,5.70
2018-07-31T13:20:49.402Z,5.83
2018-07-31T13:23:17.371Z,6.47
2018-07-31T13:25:45.688Z,5.83
2018-07-31T13:28:13.726Z,6.30
2018-07-31T13:30:41.742Z,6.20
2018-07-31T13:33:10.439Z,6.80
2018-07-31T13:35:38.437Z,6.20
2018-07-31T13:38:06.556Z,6.10
2018-07-31T13:40:34.743Z,6.65
2018-07-31T13:43:03.274Z,6.83
2018-07-31T13:45:33.905Z,6.85
2018-07-31T13:48:02.677Z,7.15
2018-07-31T13:50:31.073Z,6.55
2018-07-31T13:52:58.981Z,5.90
2018-07-31T13:55:26.886Z,7.15
2018-07-31T13:57:54.684Z,6.43
2018-07-31T14:00:22.924Z,6.65
2018-07-31T14:02:52.877Z,6.58
2018-07-31T14:05:21.151Z,6.20
2018-07-31T14:07:49.208Z,6.62
2018-07-31T14:10:18.139Z,6.20
2018-07-31T14:12:47.673Z,6.22
2018-07-31T14:15:15.464Z,6.53
2018-07-31T14:17:43.422Z,6.65
2018-07-31T14:20:11.322Z,7.33
2018-07-31T14:22:39.238Z,6.05
2018-07-31T14:25:07.228Z,5.97
2018-07-31T14:27:35.005Z,7.17
2018-07-31T14:30:03.016Z,7.10
2018-07-31T14:32:31.045Z,6.53
2018-07-31T14:34:59.133Z,7.17
2018-07-31T14:37:27.054Z,8.53
2018-07-31T14:39:54.945Z,7.78
2018-07-31T14:42:23.246Z,6.70
2018-07-31T14:44:51.190Z,7.00
2018-07-31T14:47:19.163Z,7.30
2018-07-31T14:49:47.050Z,8.10
2018-07-31T14:52:14.996Z,7.22
2018-07-31T14:54:42.840Z,7.20
2018-07-31T14:57:10.704Z,7.10
2018-07-31T14:59:38.454Z,6.35
2018-07-31T15:02:06.675Z,6.65
2018-07-31T15:04:34.783Z,6.42
2018-07-31T15:07:02.754Z,6.47
2018-07-31T15:09:31.008Z,6.60
2018-07-31T15:11:58.900Z,6.70
2018-07-31T15:14:26.783Z,7.17
2018-07-31T15:16:54.691Z,7.08
2018-07-31T15:19:22.467Z,6.78
2018-07-31T15:21:50.251Z,7.05
2018-07-31T15:24:18.229Z,7.12
2018-07-31T15:26:46.119Z,6.67
2018-07-31T15:29:14.120Z,6.65
2018-07-31T15:31:41.994Z,6.22
2018-07-31T15:34:09.860Z,6.50
2018-07-31T15:36:38.514Z,6.35
2018-07-31T15:39:09.270Z,6.30
2018-07-31T15:41:37.150Z,6.55
2018-07-31T15:44:05.076Z,6.80
2018-07-31T15:46:33.104Z,7.03
2018-07-31T15:49:00.802Z,6.90
2018-07-31T15:51:28.823Z,6.75
2018-07-31T15:53:56.833Z,7.20
2018-07-31T15:56:24.740Z,7.50
2018-07-31T15:58:52.452Z,7.62
2018-07-31T16:01:20.787Z,7.35
2018-07-31T16:03:48.687Z,7.22
2018-07-31T16:06:16.591Z,7.70
2018-07-31T16:08:44.494Z,7.83
2018-07-31T16:11:12.523Z,7.22
2018-07-31T16:13:40.437Z,7.55
2018-07-31T16:16:08.404Z,7.83
2018-07-31T16:18:36.203Z,7.20
2018-07-31T16:21:06.276Z,7.22
2018-07-31T16:23:34.275Z,7.17
2018-07-31T16:26:02.159Z,7.22
2018-07-31T16:28:30.138Z,7.62
2018-07-31T16:30:57.885Z,8.08
2018-07-31T16:33:25.759Z,8.45
2018-07-31T16:35:53.600Z,8.77
2018-07-31T16:38:21.590Z,8.13
2018-07-31T16:40:49.475Z,7.42
2018-07-31T16:43:17.410Z,7.22
2018-07-31T16:45:45.393Z,6.75
2018-07-31T16:48:13.281Z,7.42
2018-07-31T16:50:41.229Z,7.20
2018-07-31T16:53:09.183Z,7.30
2018-07-31T16:55:37.122Z,6.90
2018-07-31T16:58:05.122Z,7.50
2018-07-31T17:00:32.966Z,7.60
2018-07-31T17:03:00.894Z,7.80
2018-07-31T17:05:29.025Z,7.28
2018-07-31T17:07:56.809Z,7.40
2018-07-31T17:10:26.643Z,7.65
2018-07-31T17:12:54.644Z,7.40
2018-07-31T17:15:22.462Z,8.18
2018-07-31T17:17:50.371Z,7.33
2018-07-31T17:20:18.093Z,8.05
2018-07-31T17:22:45.983Z,6.90
2018-07-31T17:25:13.866Z,7.97
2018-07-31T17:27:41.851Z,7.97
2018-07-31T17:30:09.837Z,8.33
2018-07-31T17:32:37.798Z,7.87
2018-07-31T17:35:05.907Z,7.87
2018-07-31T17:37:34.094Z,8.00
2018-07-31T17:40:03.111Z,7.47
2018-07-31T17:42:31.655Z,7.57
2018-07-31T17:45:05.568Z,7.80
2018-07-31T17:47:33.707Z,8.30
2018-07-31T17:50:02.563Z,9.00
2018-07-31T17:52:31.730Z,7.97
2018-07-31T17:55:00.326Z,8.00
2018-07-31T17:57:28.369Z,7.53
2018-07-31T17:59:56.336Z,8.40
2018-07-31T18:02:24.326Z,8.80
2018-07-31T18:04:52.417Z,10.53
2018-07-31T18:07:20.334Z,9.23
2018-07-31T18:09:48.336Z,8.83
2018-07-31T18:12:16.279Z,8.40
2018-07-31T18:14:44.224Z,11.20
2018-07-31T18:17:12.422Z,9.30
2018-07-31T18:19:40.376Z,8.93
2018-07-31T18:22:08.491Z,7.60
2018-07-31T18:24:36.444Z,8.07
2018-07-31T18:27:04.978Z,7.43
2018-07-31T18:29:33.335Z,7.67
2018-07-31T18:32:02.270Z,7.63
2018-07-31T18:34:30.597Z,7.50
2018-07-31T18:36:58.613Z,7.67
2018-07-31T18:39:26.687Z,9.47
2018-07-31T18:41:54.566Z,7.67
2018-07-31T18:44:22.392Z,7.80
2018-07-31T18:46:50.422Z,7.83
2018-07-31T18:49:18.275Z,9.70
2018-07-31T18:51:46.370Z,7.67
2018-07-31T18:54:14.339Z,8.63
2018-07-31T18:56:42.247Z,7.70
2018-07-31T18:59:10.125Z,7.67
2018-07-31T19:01:38.184Z,8.00
2018-07-31T19:04:06.403Z,8.43
2018-07-31T19:06:34.476Z,7.47
2018-07-31T19:09:02.711Z,7.63
2018-07-31T19:11:31.192Z,7.47
2018-07-31T19:13:59.215Z,8.10
2018-07-31T19:16:27.213Z,7.40
2018-07-31T19:18:55.050Z,7.53
2018-07-31T19:21:22.787Z,7.53
2018-07-31T19:23:50.605Z,7.77
2018-07-31T19:26:18.742Z,7.23
2018-07-31T19:28:46.583Z,8.10
2018-07-31T19:31:14.646Z,8.20
2018-07-31T19:33:42.620Z,8.17
2018-07-31T19:36:10.534Z,8.47
2018-07-31T19:38:38.411Z,8.23
2018-07-31T19:41:06.368Z,9.10
2018-07-31T19:43:34.350Z,8.10
2018-07-31T19:46:03.793Z,8.00
2018-07-31T19:48:32.297Z,8.30
2018-07-31T19:51:00.895Z,8.60
2018-07-31T19:53:28.905Z,8.80
2018-07-31T19:55:57.291Z,8.23
2018-07-31T19:58:25.362Z,7.77
2018-07-31T20:00:53.108Z,8.77
2018-07-31T20:03:21.875Z,8.13
2018-07-31T20:05:50.040Z,8.10
2018-07-31T20:08:18.041Z,8.20
2018-07-31T20:10:46.116Z,8.13
2018-07-31T20:13:14.100Z,7.80
2018-07-31T20:15:42.229Z,7.50
2018-07-31T20:18:10.401Z,7.33
2018-07-31T20:20:38.265Z,7.70
2018-07-31T20:23:06.290Z,7.73
2018-07-31T20:25:34.619Z,8.37
2018-07-31T20:28:03.104Z,7.73
2018-07-31T20:30:31.554Z,8.37
2018-07-31T20:33:00.432Z,8.27
2018-07-31T20:35:28.314Z,8.13
2018-07-31T20:37:56.534Z,8.03
2018-07-31T20:40:24.548Z,7.47
2018-07-31T20:42:52.627Z,7.20
2018-07-31T20:45:20.430Z,8.10
2018-07-31T20:47:48.605Z,8.20
2018-07-31T20:50:16.710Z,7.53
2018-07-31T20:52:45.602Z,7.90
2018-07-31T20:55:13.597Z,7.73
2018-07-31T20:57:41.642Z,6.93
2018-07-31T21:00:10.735Z,7.80
2018-07-31T21:02:38.752Z,6.90
2018-07-31T21:05:06.883Z,7.40
2018-07-31T21:07:35.039Z,7.67
2018-07-31T21:10:03.359Z,7.67
2018-07-31T21:12:31.585Z,7.77
2018-07-31T21:14:59.595Z,7.50
2018-07-31T21:17:27.479Z,7.73
2018-07-31T21:19:55.566Z,8.40
2018-07-31T21:22:23.321Z,8.13
2018-07-31T21:24:51.702Z,8.73
2018-07-31T21:27:19.584Z,8.47
2018-07-31T21:29:47.528Z,7.87
2018-07-31T21:32:15.400Z,8.53
2018-07-31T21:34:43.334Z,8.40
2018-07-31T21:37:11.217Z,8.50
2018-07-31T21:39:39.184Z,9.43
2018-07-31T21:42:07.093Z,9.03
2018-07-31T21:44:34.846Z,8.53
2018-07-31T21:47:02.652Z,8.53
2018-07-31T21:49:30.521Z,8.03
2018-07-31T21:51:58.562Z,8.80
2018-07-31T21:54:26.509Z,9.43
2018-07-31T21:56:54.444Z,8.50
2018-07-31T21:59:22.370Z,8.43
2018-07-31T22:01:50.421Z,8.07
2018-07-31T22:04:22.601Z,7.43
2018-07-31T22:06:50.955Z,7.77
2018-07-31T22:09:23.222Z,8.10
2018-07-31T22:11:51.252Z,7.77
2018-07-31T22:14:19.234Z,9.57
2018-07-31T22:16:47.071Z,7.40
2018-07-31T22:19:14.965Z,7.30
2018-07-31T22:21:43.578Z,7.90
2018-07-31T22:24:11.705Z,7.43
2018-07-31T22:26:39.577Z,9.07
2018-07-31T22:29:07.701Z,7.83
2018-07-31T22:31:35.656Z,7.60
2018-07-31T22:34:03.601Z,7.90
2018-07-31T22:36:32.511Z,7.70
2018-07-31T22:39:00.301Z,8.27
2018-07-31T22:41:29.295Z,9.23
2018-07-31T22:43:57.277Z,8.03
2018-07-31T22:46:25.269Z,8.40
2018-07-31T22:48:53.160Z,8.80
2018-07-31T22:51:20.932Z,11.03
2018-07-31T22:53:48.790Z,8.80
2018-07-31T22:56:16.595Z,10.37
2018-07-31T22:58:44.292Z,9.63
2018-07-31T23:01:12.143Z,9.03
2018-07-31T23:03:40.079Z,9.10
2018-07-31T23:06:08.100Z,9.20
2018-07-31T23:08:36.014Z,8.10
2018-07-31T23:11:04.067Z,8.73
2018-07-31T23:13:31.960Z,8.73
2018-07-31T23:15:59.832Z,8.30
2018-07-31T23:18:27.672Z,8.83
2018-07-31T23:20:55.631Z,8.97
2018-07-31T23:23:23.476Z,8.10
2018-07-31T23:25:51.409Z,8.57
2018-07-31T23:28:19.417Z,8.57
2018-07-31T23:30:47.333Z,8.57
2018-07-31T23:33:15.178Z,8.50
2018-07-31T23:35:43.173Z,8.03
2018-07-31T23:38:11.168Z,8.73
2018-07-31T23:40:39.029Z,8.57
2018-07-31T23:43:06.905Z,8.57
2018-07-31T23:45:34.833Z,8.63
2018-07-31T23:48:02.851Z,8.33
2018-07-31T23:50:31.269Z,8.77
2018-07-31T23:52:59.297Z,7.77
2018-07-31T23:55:27.397Z,8.60
2018-07-31T23:57:55.929Z,8.30
